Latest Weather Observations for Dubbo

IDN60801

Issued at 7:02 am EDT Thursday 19 January 2017 (issued every 30 minutes, with the page automatically refreshed every 10 minutes)

About weather observations | Map of weather stations | Latest weather observations for NSW | Other Formats
Station Details ID: 065070 Name: DUBBO AIRPORT AWS Lat: -32.22 Lon: 148.58 Height: 284.0 m
Data from the previous 72 hours. | See also: Recent months at Dubbo
Date/Time
EDT
Temp
°C
App
Temp
°C
Dew
Point
°C
Rel
Hum
%
Delta-T
°C
Wind Press
QNH
hPa
Press
MSL
hPa
Rain since
9am
mm
Dir  Spd
km/h
Gust
km/h
Spd
kts
Gust
kts
19/06:30am 21.1 18.2 17.1 78 2.5 ENE 28 39 15 21 1010.8 1009.2 0.0
19/06:00am 21.4 18.7 17.6 79 2.4 ENE 28 35 15 19 1010.6 1009.0 0.0
19/05:30am 21.6 19.4 17.8 79 2.4 ENE 26 41 14 22 1010.2 1008.5 0.0
19/05:00am 21.6 19.4 17.8 79 2.4 ENE 26 39 14 21 1010.1 1008.4 0.0
19/04:30am 21.8 19.7 18.0 79 2.4 ENE 26 33 14 18 1010.0 1008.3 0.0
19/04:00am 22.1 20.0 18.1 78 2.5 ENE 26 35 14 19 1010.0 1008.3 0.0
19/03:30am 22.3 20.7 18.3 78 2.5 NE 24 35 13 19 1009.8 1008.1 0.0
19/03:00am 22.4 21.5 18.2 77 2.7 ENE 20 30 11 16 1010.2 1008.5 0.0
19/02:30am 22.8 21.9 18.3 76 2.9 ENE 20 30 11 16 1010.3 1008.6 0.0
19/02:00am 23.0 22.4 18.5 76 2.9 NE 19 28 10 15 1010.5 1008.9 0.0
19/01:30am 23.2 22.6 18.5 75 3.0 NE 19 26 10 14 1010.7 1009.1 0.0
19/01:00am 23.7 23.1 18.8 74 3.1 NE 20 28 11 15 1011.2 1009.6 0.0
19/12:30am 24.3 24.9 19.4 74 3.2 NE 15 24 8 13 1011.4 1009.8 0.0
19/12:00am 23.6 23.9 19.7 79 2.5 NE 17 22 9 12 1011.8 1010.2 0.0
 
Date/Time
EDT
Temp
°C
App
Temp
°C
Dew
Point
°C
Rel
Hum
%
Delta-T
°C
Wind Press
QNH
hPa
Press
MSL
hPa
Rain since
9am
mm
Dir  Spd
km/h
Gust
km/h
Spd
kts
Gust
kts
18/11:30pm 22.5 24.3 20.4 88 1.4 NE 11 24 6 13 1011.7 1010.1 0.0
18/11:00pm 22.9 25.4 19.9 83 2.0 NNE 6 7 3 4 1011.1 1009.5 0.0
18/10:30pm 22.8 26.2 19.4 81 2.2 CALM 0 0 0 0 1011.2 1009.6 0.0
18/10:00pm 23.8 26.0 19.3 76 2.9 NNE 6 7 3 4 1011.1 1009.5 0.0
18/09:30pm 25.0 27.1 19.4 71 3.6 N 7 9 4 5 1011.0 1009.4 0.0
18/09:00pm 25.8 27.4 19.2 67 4.3 N 9 15 5 8 1010.8 1009.2 0.0
18/08:30pm 27.0 28.0 19.4 63 5.0 NW 13 22 7 12 1010.2 1008.5 0.0
18/08:00pm 27.4 28.7 19.2 61 5.4 N 11 17 6 9 1009.7 1008.0 0.0
18/07:30pm 28.2 27.5 18.6 56 6.2 N 20 30 11 16 1009.1 1007.4 0.0
18/07:00pm 29.1 26.0 18.5 52 6.9 N 32 43 17 23 1008.4 1006.8 0.0
18/06:30pm 31.5 28.4 18.5 46 8.5 NNW 32 43 17 23 1008.0 1006.4 0.0
18/06:00pm 32.5 30.7 18.7 44 9.1 NNE 26 32 14 17 1007.3 1005.6 0.0
18/05:30pm 33.8 30.7 18.3 39 10.2 NNW 32 44 17 24 1007.1 1005.4 0.0
18/05:00pm 35.5 31.3 16.3 32 12.4 NW 33 44 18 24 1006.3 1004.6 0.0
18/04:30pm 36.7 33.3 17.8 32 12.4 WNW 32 39 17 21 1006.0 1004.3 0.0
18/04:00pm 33.6 30.8 18.1 39 10.2 NNW 30 43 16 23 1006.4 1004.7 0.0
18/03:44pm 32.9 28.8 18.3 42 9.6 NW 37 48 20 26 1006.9 1005.2 0.0
18/03:30pm 35.5 31.1 19.4 38 10.8 WNW 41 57 22 31 1007.0 1005.3 0.0
18/03:23pm 36.2 34.2 18.3 34 11.8 WNW 26 57 14 31 1007.0 1005.3 0.0
18/03:00pm 39.3 38.4 16.8 26 14.7 W 17 24 9 13 1007.2 1005.5 0.0
18/02:48pm 38.5 35.7 17.3 28 13.9 WNW 28 46 15 25 1007.4 1005.8 0.0
18/02:40pm 36.8 34.2 17.9 33 12.4 WNW 28 46 15 25 1007.8 1006.2 0.0
18/02:30pm 38.3 36.4 17.7 30 13.6 WNW 24 39 13 21 1007.8 1006.2 0.0
18/02:00pm 39.8 37.8 18.4 28 14.3 WNW 26 44 14 24 1008.3 1006.7 0.0
18/01:50pm 39.4 36.8 18.6 29 13.9 WNW 30 43 16 23 1008.4 1006.8 0.0
18/01:30pm 38.9 35.5 18.2 30 13.8 WNW 33 48 18 26 1009.0 1007.3 0.0
18/01:00pm 38.2 35.2 18.6 31 13.1 WNW 32 50 17 27 1009.6 1007.9 0.0
18/12:56pm 38.3 35.3 18.7 31 13.1 NW 32 50 17 27 1009.7 1008.0 0.0
18/12:30pm 37.8 34.8 17.7 30 13.2 WNW 30 44 16 24 1010.1 1008.4 0.0
18/12:15pm 37.2 34.0 18.2 32 12.6 WNW 32 52 17 28 1010.3 1008.6 0.0
18/12:12pm 37.1 33.5 17.6 31 12.8 NW 33 52 18 28 1010.3 1008.6 0.0
18/12:07pm 36.7 32.8 17.8 32 12.4 NW 35 48 19 26 1010.3 1008.6 0.0
18/12:00pm 37.0 32.8 18.1 33 12.5 NW 37 50 20 27 1010.3 1008.6 0.0
18/11:30am 35.8 31.9 17.9 34 11.8 NW 35 44 19 24 1010.7 1009.1 0.0
18/11:00am 35.7 32.0 17.4 33 11.9 NW 33 48 18 26 1010.9 1009.3 0.0
18/10:58am 36.7 33.2 17.8 32 12.4 NW 33 52 18 28 1010.9 1009.3 0.0
18/10:30am 35.0 30.3 16.8 34 11.7 NW 37 50 20 27 1010.9 1009.3 0.0
18/10:00am 34.8 30.2 16.1 32 12.0 NW 35 46 19 25 1011.0 1009.4 0.0
18/09:30am 34.1 28.9 14.6 31 12.2 NW 35 50 19 27 1011.1 1009.5 0.0
18/09:00am 33.0 28.2 15.5 35 11.0 NW 35 46 19 25 1011.3 1009.7 0.0
18/08:34am 32.6 28.7 15.6 36 10.7 NW 30 48 16 26 1011.3 1009.7 0.0
18/08:30am 32.2 27.6 15.2 35 10.6 NNW 33 48 18 26 1011.2 1009.6 0.0
18/08:00am 31.1 27.6 15.5 39 9.8 NNW 28 37 15 20 1011.2 1009.6 0.0
18/07:30am 29.8 26.9 16.2 43 8.6 NNW 26 32 14 17 1011.0 1009.4 0.0
18/07:00am 28.9 26.4 16.1 46 8.0 NNW 24 32 13 17 1010.9 1009.3 0.0
18/06:30am 28.8 26.2 16.0 45 8.0 NNW 24 32 13 17 1010.5 1008.9 0.0
18/06:00am 29.0 26.4 15.9 45 8.2 NW 24 32 13 17 1010.3 1008.6 0.0
18/05:30am 29.8 27.3 16.2 43 8.6 NNW 24 33 13 18 1009.8 1008.1 0.0
18/05:00am 29.9 27.5 16.3 43 8.6 NNW 24 39 13 21 1009.5 1007.8 0.0
18/04:30am 30.3 26.4 15.6 41 9.2 NW 30 44 16 24 1009.1 1007.4 0.0
18/04:28am 30.3 26.8 15.6 41 9.2 NW 28 44 15 24 1009.1 1007.4 0.0
18/04:00am 29.9 27.4 14.0 37 9.7 NNW 20 26 11 14 1009.1 1007.4 0.0
18/03:30am 30.3 27.9 14.4 38 9.8 NNW 20 24 11 13 1009.3 1007.6 0.0
18/03:00am 31.3 28.2 14.4 35 10.4 NNW 24 35 13 19 1009.3 1007.6 0.0
18/02:30am 32.1 28.2 14.3 34 11.0 NNW 28 37 15 20 1009.2 1007.5 0.0
18/02:00am 32.2 29.0 14.3 33 11.1 NNW 24 33 13 18 1009.3 1007.6 0.0
18/01:30am 32.0 29.2 14.2 34 11.0 NNW 22 30 12 16 1009.5 1007.8 0.0
18/01:00am 32.3 29.0 14.0 33 11.3 N 24 37 13 20 1009.5 1007.8 0.0
18/12:30am 32.6 29.4 14.2 32 11.4 N 24 32 13 17 1009.8 1008.1 0.0
18/12:00am 32.9 30.5 14.5 33 11.4 N 20 28 11 15 1009.9 1008.2 0.0
 
Date/Time
EDT
Temp
°C
App
Temp
°C
Dew
Point
°C
Rel
Hum
%
Delta-T
°C
Wind Press
QNH
hPa
Press
MSL
hPa
Rain since
9am
mm
Dir  Spd
km/h
Gust
km/h
Spd
kts
Gust
kts
17/11:30pm 32.4 30.2 14.5 33 11.1 N 19 24 10 13 1010.0 1008.3 0.0
17/11:00pm 32.5 30.4 14.6 34 11.1 N 19 22 10 12 1010.1 1008.4 0.0
17/10:30pm 32.1 30.4 14.7 35 10.8 N 17 20 9 11 1010.2 1008.5 0.0
17/10:00pm 31.7 30.4 14.8 36 10.5 NNE 15 19 8 10 1010.2 1008.5 0.0
17/09:30pm 30.8 30.1 14.4 36 10.1 NNE 11 15 6 8 1010.0 1008.3 0.0
17/09:00pm 32.8 31.6 13.9 31 11.6 N 13 15 7 8 1009.8 1008.1 0.0
17/08:30pm 34.2 32.9 13.6 29 12.7 NNW 13 17 7 9 1009.6 1007.9 0.0
17/08:00pm 35.6 33.9 13.7 27 13.6 NNW 15 20 8 11 1009.4 1007.7 0.0
17/07:30pm 37.3 34.8 14.0 25 14.6 NNW 20 32 11 17 1009.4 1007.7 0.0
17/07:00pm 38.4 35.7 13.6 23 15.5 NW 20 28 11 15 1009.3 1007.6 0.0
17/06:30pm 39.1 36.4 13.5 22 16.0 WNW 20 30 11 16 1009.3 1007.6 0.0
17/06:00pm 39.2 36.3 12.9 21 16.3 NNW 20 35 11 19 1009.4 1007.7 0.0
17/05:30pm 39.6 35.3 13.2 21 16.5 NNW 28 39 15 21 1009.7 1008.0 0.0
17/05:00pm 39.4 35.8 13.0 21 16.4 NW 24 32 13 17 1009.9 1008.2 0.0
17/04:30pm 39.4 35.6 13.7 21 16.1 NW 26 41 14 22 1010.3 1008.6 0.0
17/04:00pm 39.3 36.4 15.0 24 15.5 NNW 24 32 13 17 1010.5 1008.9 0.0
17/03:30pm 39.5 37.1 14.5 23 15.9 NW 20 39 11 21 1011.0 1009.4 0.0
17/03:00pm 38.2 34.9 14.1 24 15.1 NNW 24 37 13 20 1011.4 1009.8 0.0
17/02:30pm 39.9 37.9 15.5 24 15.7 NW 20 35 11 19 1011.7 1010.1 0.0
17/02:00pm 37.1 34.7 14.4 26 14.3 WNW 20 33 11 18 1012.4 1010.7 0.0
17/01:30pm 38.6 36.4 16.8 27 14.2 WNW 24 35 13 19 1012.9 1011.2 0.0
17/01:00pm 37.5 34.3 16.4 28 13.6 WNW 28 35 15 19 1013.4 1011.7 0.0
17/12:30pm 36.4 33.9 18.0 33 12.1 NW 28 43 15 23 1013.9 1012.3 0.0
17/12:00pm 36.2 32.8 17.8 33 12.1 NW 32 41 17 22 1014.3 1012.7 0.0
17/11:30am 35.0 30.7 16.8 34 11.7 NNW 35 56 19 30 1014.5 1012.9 0.0
17/11:23am 35.3 31.6 17.5 34 11.6 NNW 33 54 18 29 1014.6 1013.0 0.0
17/11:00am 34.5 30.9 17.7 37 11.0 NW 33 44 18 24 1014.8 1013.2 0.0
17/10:30am 34.1 30.7 18.2 39 10.4 NNW 33 44 18 24 1015.0 1013.4 0.0
17/10:00am 33.2 30.0 18.2 41 9.8 NNW 32 46 17 25 1015.3 1013.7 0.0
17/09:30am 32.3 28.9 17.7 41 9.5 NNW 32 41 17 22 1015.4 1013.8 0.0
17/09:00am 31.5 28.4 17.4 43 9.1 NNW 30 39 16 21 1015.4 1013.8 0.0
17/08:30am 31.5 29.7 17.8 44 8.9 N 24 33 13 18 1015.5 1013.9 -
17/08:00am 29.7 30.2 17.5 48 7.8 NNE 11 20 6 11 1015.4 1013.8 -
17/07:30am 27.5 28.7 17.4 54 6.4 NE 7 9 4 5 1015.2 1013.6 -
17/07:00am 24.4 24.3 15.9 59 5.2 NE 11 13 6 7 1014.8 1013.2 -
17/06:30am 23.5 22.8 15.5 60 4.9 ENE 13 13 7 7 1014.4 1012.8 -
17/06:00am 23.5 22.3 15.0 59 5.1 NE 15 17 8 9 1014.1 1012.5 -
17/05:30am 23.2 22.6 14.5 58 5.2 NE 11 13 6 7 1013.8 1012.2 -
17/05:00am 23.8 23.3 13.9 54 5.9 ENE 9 13 5 7 1013.4 1011.7 -
17/04:30am 23.9 23.6 14.3 55 5.7 ESE 9 11 5 6 1013.0 1011.3 -
17/04:00am 23.8 23.2 13.6 52 6.0 ENE 9 11 5 6 1012.8 1011.1 -
17/03:30am 24.1 22.6 13.0 50 6.5 ENE 13 13 7 7 1012.7 1011.0 -
17/03:00am 24.5 23.4 12.1 46 7.2 NE 9 15 5 8 1012.8 1011.1 -
17/02:30am 26.6 24.7 11.9 40 8.5 NE 13 19 7 10 1012.9 1011.2 -
17/02:00am 26.9 24.2 11.8 39 8.8 ENE 17 20 9 11 1013.0 1011.3 -
17/01:30am 26.9 23.9 10.6 36 9.3 NE 17 22 9 12 1013.1 1011.4 -
17/01:00am 27.4 - 10.2 34 9.8 - - - - - 1013.1 1011.4 -
17/12:00am 24.3 22.9 12.3 47 6.9 E 11 13 6 7 1013.1 1011.4 0.0
 
Date/Time
EDT
Temp
°C
App
Temp
°C
Dew
Point
°C
Rel
Hum
%
Delta-T
°C
Wind Press
QNH
hPa
Press
MSL
hPa
Rain since
9am
mm
Dir  Spd
km/h
Gust
km/h
Spd
kts
Gust
kts
16/11:30pm 24.8 24.2 11.7 44 7.5 E 6 11 3 6 1013.1 1011.4 0.0
16/11:00pm 25.8 23.1 11.6 41 8.2 SE 17 17 9 9 1013.1 1011.4 0.0
16/10:30pm 25.6 23.2 11.4 41 8.1 SE 15 17 8 9 1013.1 1011.4 0.0
16/10:00pm 26.1 23.6 11.1 39 8.6 SE 15 15 8 8 1012.9 1011.2 0.0
16/09:30pm 26.1 24.0 11.1 39 8.6 SE 13 15 7 8 1012.7 1011.0 0.0
16/09:00pm 27.8 25.5 10.5 34 9.9 SE 13 15 7 8 1012.6 1010.9 0.0
16/08:30pm 29.0 26.6 10.2 31 10.7 SE 13 17 7 9 1012.4 1010.7 0.0
16/08:00pm 31.3 29.0 10.6 28 12.0 SE 13 15 7 8 1012.1 1010.5 0.0
16/07:30pm 33.5 31.5 11.4 26 13.1 SE 13 15 7 8 1011.9 1010.3 0.0
16/07:00pm 34.6 32.3 10.4 23 14.2 SSE 13 19 7 10 1011.7 1010.1 0.0
16/06:30pm 35.3 33.9 11.0 23 14.4 SE 9 15 5 8 1011.6 1010.0 0.0
16/06:00pm 35.5 33.8 11.2 23 14.5 ESE 11 19 6 10 1011.4 1009.8 0.0
16/05:30pm 36.5 36.0 12.7 24 14.6 W 7 11 4 6 1011.4 1009.8 0.0
16/05:00pm 35.9 35.8 12.2 24 14.4 N 4 11 2 6 1011.4 1009.8 0.0
16/04:30pm 36.1 34.5 11.7 23 14.7 SSW 11 20 6 11 1011.7 1010.1 0.0
16/04:00pm 36.1 35.7 13.0 25 14.2 SSW 7 15 4 8 1012.0 1010.4 0.0
16/03:30pm 35.4 35.2 14.6 28 13.0 NE 9 17 5 9 1012.4 1010.7 0.0
16/03:00pm 34.8 34.2 14.7 30 12.6 S 11 17 6 9 1012.7 1011.0 0.0
16/02:30pm 34.7 35.2 16.5 33 11.7 ENE 9 17 5 9 1013.0 1011.3 0.0
16/02:00pm 33.5 34.7 16.8 36 10.7 NNE 6 11 3 6 1013.4 1011.7 0.0
16/01:30pm 33.3 34.4 16.6 36 10.7 N 6 17 3 9 1013.9 1012.3 0.0
16/01:00pm 32.3 33.5 17.4 41 9.6 NNE 7 19 4 10 1014.4 1012.8 0.0
16/12:30pm 31.3 32.1 17.2 42 9.0 ESE 9 15 5 8 1014.8 1013.2 0.0
16/12:00pm 30.2 30.6 17.3 46 8.3 ENE 11 20 6 11 1015.3 1013.7 0.0
16/11:30am 30.0 30.8 18.1 49 7.7 NE 11 19 6 10 1015.5 1013.9 0.0
16/11:00am 28.6 27.6 17.5 51 7.1 NE 19 28 10 15 1015.7 1014.1 0.0
16/10:30am 27.7 26.8 16.9 51 6.8 NE 17 28 9 15 1016.0 1014.3 0.0
16/10:00am 26.2 24.6 16.4 54 6.1 NE 20 26 11 14 1016.3 1014.6 0.0
16/09:30am 25.2 23.6 16.4 58 5.5 NE 20 30 11 16 1016.5 1014.8 0.0
16/09:00am 24.3 22.2 16.3 61 4.9 ENE 22 30 12 16 1016.6 1014.9 0.0
16/08:30am 23.1 21.1 16.4 66 4.1 NE 22 33 12 18 1016.5 1014.8 0.0
16/08:00am 21.4 18.4 15.9 71 3.3 ENE 26 35 14 19 1016.4 1014.7 0.0
16/07:30am 20.3 18.1 15.9 76 2.7 ENE 22 30 12 16 1016.2 1014.5 0.0

Other Formats:

Comma delimited format used in spreadsheet applications
http://www.bom.gov.au/fwo/IDN60801/IDN60801.95719.axf

JavaScript Object Notation format (JSON) in row-major order
http://www.bom.gov.au/fwo/IDN60801/IDN60801.95719.json